Time,TemperatureF,DewpointF,PressureIn,WindDirection,WindDirectionDegrees,WindSpeedMPH,WindSpeedGustMPH,Humidity,HourlyPrecipIn,Conditions,Clouds,dailyrainin,SoftwareType,DateUTC
2013-01-12 00:02:00,38.0,36.0,29.40,WSW,246,11.0,17.0,94,0.00,,,0.03,,2013-01-12 06:02:00,
2013-01-12 00:12:00,38.0,36.0,29.40,WSW,246,11.0,17.0,94,0.00,,,0.03,,2013-01-12 06:12:00,
2013-01-12 00:22:00,37.0,35.0,29.40,WSW,238,7.0,10.0,94,0.00,,,0.02,,2013-01-12 06:22:00,
2013-01-12 00:32:00,36.0,34.0,29.40,SW,228,9.0,14.0,93,0.00,,,0.02,,2013-01-12 06:32:00,
2013-01-12 00:42:00,36.0,34.0,29.40,SW,228,9.0,14.0,93,0.00,,,0.02,,2013-01-12 06:42:00,
2013-01-12 00:53:00,36.0,34.0,29.40,SW,228,9.0,14.0,93,0.00,,,0.02,,2013-01-12 06:53:00,
2013-01-12 01:02:00,36.0,34.0,29.41,SW,229,11.0,15.0,92,0.00,,,0.02,,2013-01-12 07:02:00,
2013-01-12 01:12:00,36.0,34.0,29.41,SW,229,11.0,15.0,92,0.00,,,0.02,,2013-01-12 07:12:00,
2013-01-12 01:22:00,35.0,33.0,29.44,WSW,242,14.0,18.0,92,0.00,,,0.02,,2013-01-12 07:22:00,
2013-01-12 01:32:00,35.0,33.0,29.46,WSW,242,19.0,29.0,91,0.00,,,0.02,,2013-01-12 07:32:00,
2013-01-12 01:42:00,35.0,33.0,29.46,WSW,242,19.0,29.0,91,0.00,,,0.02,,2013-01-12 07:42:00,
2013-01-12 01:52:00,33.0,31.0,29.46,West,260,18.0,26.0,92,0.00,,,0.02,,2013-01-12 07:52:00,
2013-01-12 02:02:00,33.0,31.0,29.46,West,260,18.0,26.0,92,0.00,,,0.02,,2013-01-12 08:02:00,
2013-01-12 02:12:00,33.0,31.0,29.46,West,260,18.0,26.0,92,0.00,,,0.02,,2013-01-12 08:12:00,
2013-01-12 02:22:00,30.0,28.0,29.49,WSW,254,17.0,24.0,93,0.00,,,0.02,,2013-01-12 08:22:00,
2013-01-12 02:32:00,28.0,26.0,29.50,West,259,19.0,31.0,91,0.00,,,0.02,,2013-01-12 08:32:00,
2013-01-12 02:42:00,28.0,26.0,29.50,West,259,19.0,31.0,91,0.00,,,0.02,,2013-01-12 08:42:00,
2013-01-12 02:52:00,26.0,23.0,29.53,West,269,23.0,34.0,90,0.00,,,0.02,,2013-01-12 08:52:00,
2013-01-12 03:02:00,25.0,23.0,29.54,West,263,16.0,24.0,91,0.00,,,0.02,,2013-01-12 09:02:00,
2013-01-12 03:12:00,25.0,23.0,29.54,West,263,16.0,24.0,91,0.00,,,0.02,,2013-01-12 09:12:00,
2013-01-12 03:22:00,25.0,23.0,29.56,West,281,16.0,24.0,91,0.00,,,0.02,,2013-01-12 09:22:00,
2013-01-12 03:32:00,25.0,23.0,29.56,West,281,16.0,24.0,91,0.00,,,0.02,,2013-01-12 09:32:00,
2013-01-12 03:42:00,25.0,23.0,29.56,West,281,16.0,24.0,91,0.00,,,0.02,,2013-01-12 09:42:00,
2013-01-12 03:53:00,24.0,20.0,29.57,West,280,28.0,38.0,85,0.00,,,0.02,,2013-01-12 09:53:00,
2013-01-12 04:02:00,22.0,17.0,29.59,West,260,26.0,38.0,80,0.00,,,0.02,,2013-01-12 10:02:00,
2013-01-12 04:12:00,22.0,17.0,29.59,West,260,26.0,38.0,80,0.00,,,0.02,,2013-01-12 10:12:00,
2013-01-12 04:22:00,21.0,16.0,29.61,West,267,21.0,35.0,82,0.00,,,0.02,,2013-01-12 10:22:00,
2013-01-12 04:32:00,20.0,15.0,29.62,West,276,32.0,42.0,80,0.00,,,0.02,,2013-01-12 10:32:00,
2013-01-12 04:42:00,20.0,15.0,29.62,West,276,32.0,42.0,80,0.00,,,0.02,,2013-01-12 10:42:00,
2013-01-12 04:52:00,20.0,15.0,29.62,West,276,32.0,42.0,80,0.00,,,0.02,,2013-01-12 10:52:00,
2013-01-12 05:02:00,19.0,14.0,29.64,West,267,28.0,40.0,80,0.00,,,0.02,,2013-01-12 11:02:00,
2013-01-12 05:12:00,19.0,14.0,29.64,West,267,28.0,40.0,80,0.00,,,0.02,,2013-01-12 11:12:00,
2013-01-12 05:22:00,19.0,14.0,29.65,West,277,27.0,34.0,79,0.00,,,0.02,,2013-01-12 11:22:00,
2013-01-12 05:32:00,18.0,14.0,29.67,WSW,255,23.0,34.0,83,0.00,,,0.02,,2013-01-12 11:32:00,
2013-01-12 05:42:00,18.0,14.0,29.67,WSW,255,23.0,34.0,83,0.00,,,0.02,,2013-01-12 11:42:00,
2013-01-12 05:52:00,18.0,15.0,29.68,WNW,284,23.0,32.0,86,0.00,,,0.02,,2013-01-12 11:52:00,
2013-01-12 06:03:00,18.0,15.0,29.68,WNW,284,23.0,32.0,86,0.00,,,0.02,,2013-01-12 12:03:00,
2013-01-12 06:12:00,18.0,15.0,29.68,WNW,284,23.0,32.0,86,0.00,,,0.02,,2013-01-12 12:12:00,
2013-01-12 06:22:00,18.0,13.0,29.70,West,272,32.0,41.0,80,0.00,,,0.02,,2013-01-12 12:22:00,
2013-01-12 06:32:00,18.0,13.0,29.70,West,272,32.0,41.0,80,0.00,,,0.02,,2013-01-12 12:32:00,
2013-01-12 06:42:00,18.0,13.0,29.70,West,272,32.0,41.0,80,0.00,,,0.02,,2013-01-12 12:42:00,
2013-01-12 06:52:00,17.0,14.0,29.74,West,274,13.0,30.0,86,0.00,,,0.02,,2013-01-12 12:52:00,
2013-01-12 07:02:00,17.0,13.0,29.76,West,273,18.0,26.0,85,0.00,,,0.02,,2013-01-12 13:02:00,
2013-01-12 07:12:00,17.0,13.0,29.76,West,273,18.0,26.0,85,0.00,,,0.02,,2013-01-12 13:12:00,
2013-01-12 07:22:00,17.0,13.0,29.76,West,273,18.0,26.0,85,0.00,,,0.02,,2013-01-12 13:22:00,
2013-01-12 07:33:00,15.0,11.0,29.77,WNW,285,20.0,31.0,84,0.00,,,0.02,,2013-01-12 13:33:00,
2013-01-12 07:42:00,15.0,11.0,29.77,WNW,285,20.0,31.0,84,0.00,,,0.02,,2013-01-12 13:42:00,
2013-01-12 07:53:00,15.0,11.0,29.80,West,259,22.0,31.0,84,0.00,,,0.02,,2013-01-12 13:53:00,
2013-01-12 08:02:00,14.0,10.0,29.81,WSW,257,13.0,27.0,83,0.00,,,0.02,,2013-01-12 14:02:00,
2013-01-12 08:12:00,14.0,10.0,29.81,WSW,257,13.0,27.0,83,0.00,,,0.02,,2013-01-12 14:12:00,
2013-01-12 08:22:00,13.0,8.0,29.83,WNW,288,23.0,32.0,81,0.00,,,0.02,,2013-01-12 14:22:00,
2013-01-12 08:33:00,13.0,8.0,29.83,WNW,288,23.0,32.0,81,0.00,,,0.02,,2013-01-12 14:33:00,
2013-01-12 08:43:00,13.0,8.0,29.83,WNW,288,23.0,32.0,81,0.00,,,0.02,,2013-01-12 14:43:00,
2013-01-12 08:53:00,13.0,9.0,29.84,WNW,283,15.0,28.0,83,0.00,,,0.02,,2013-01-12 14:53:00,
2013-01-12 09:03:00,13.0,9.0,29.85,West,280,16.0,27.0,82,0.00,,,0.02,,2013-01-12 15:03:00,
2013-01-12 09:12:00,13.0,9.0,29.85,West,280,16.0,27.0,82,0.00,,,0.02,,2013-01-12 15:12:00,
2013-01-12 09:22:00,12.0,8.0,29.87,West,267,14.0,26.0,84,0.00,,,0.02,,2013-01-12 15:22:00,
2013-01-12 09:33:00,12.0,8.0,29.88,West,266,19.0,26.0,82,0.00,,,0.02,,2013-01-12 15:33:00,
2013-01-12 09:43:00,12.0,8.0,29.88,West,266,19.0,26.0,82,0.00,,,0.02,,2013-01-12 15:43:00,
2013-01-12 09:53:00,12.0,8.0,29.88,West,266,19.0,26.0,82,0.00,,,0.02,,2013-01-12 15:53:00,
2013-01-12 10:03:00,12.0,7.0,29.89,West,280,17.0,25.0,80,0.00,,,0.02,,2013-01-12 16:03:00,
2013-01-12 10:12:00,12.0,7.0,29.89,West,280,17.0,25.0,80,0.00,,,0.02,,2013-01-12 16:12:00,
2013-01-12 10:23:00,12.0,8.0,29.91,West,273,16.0,23.0,83,0.00,,,0.02,,2013-01-12 16:23:00,
2013-01-12 10:33:00,12.0,7.0,29.91,West,276,19.0,27.0,81,0.00,,,0.02,,2013-01-12 16:33:00,
2013-01-12 10:42:00,12.0,7.0,29.91,West,276,19.0,27.0,81,0.00,,,0.02,,2013-01-12 16:42:00,
2013-01-12 10:52:00,11.0,7.0,29.92,West,266,17.0,26.0,83,0.00,,,0.02,,2013-01-12 16:52:00,
2013-01-12 11:02:00,11.0,7.0,29.92,West,266,17.0,26.0,83,0.00,,,0.02,,2013-01-12 17:02:00,
2013-01-12 11:12:00,11.0,7.0,29.92,West,266,17.0,26.0,83,0.00,,,0.02,,2013-01-12 17:12:00,
2013-01-12 11:22:00,11.0,5.0,29.95,WNW,283,20.0,29.0,77,0.00,,,0.02,,2013-01-12 17:22:00,
2013-01-12 11:33:00,12.0,6.0,29.95,West,274,17.0,23.0,77,0.00,,,0.01,,2013-01-12 17:33:00,
2013-01-12 11:43:00,12.0,6.0,29.95,West,274,17.0,23.0,77,0.00,,,0.01,,2013-01-12 17:43:00,
2013-01-12 11:53:00,12.0,6.0,29.95,West,274,17.0,23.0,77,0.00,,,0.01,,2013-01-12 17:53:00,
2013-01-12 12:03:00,11.0,5.0,29.95,West,278,20.0,31.0,77,0.00,,,0.01,,2013-01-12 18:03:00,
2013-01-12 12:12:00,11.0,5.0,29.95,West,278,20.0,31.0,77,0.00,,,0.01,,2013-01-12 18:12:00,
2013-01-12 12:23:00,11.0,7.0,29.96,WNW,283,19.0,30.0,84,0.00,,,0.01,,2013-01-12 18:23:00,
2013-01-12 12:33:00,11.0,7.0,29.96,WNW,283,19.0,30.0,84,0.00,,,0.01,,2013-01-12 18:33:00,
2013-01-12 12:42:00,11.0,7.0,29.96,WNW,283,19.0,30.0,84,0.00,,,0.01,,2013-01-12 18:42:00,
2013-01-12 12:53:00,10.0,6.0,29.96,WNW,292,18.0,29.0,84,0.00,,,0.01,,2013-01-12 18:53:00,
2013-01-12 13:03:00,10.0,5.0,29.96,West,280,21.0,33.0,78,0.00,,,0.01,,2013-01-12 19:03:00,
2013-01-12 13:12:00,10.0,5.0,29.96,West,280,21.0,33.0,78,0.00,,,0.01,,2013-01-12 19:12:00,
2013-01-12 13:23:00,10.0,4.0,29.97,West,277,20.0,28.0,77,0.00,,,0.01,,2013-01-12 19:23:00,
2013-01-12 13:33:00,11.0,5.0,29.99,West,263,17.0,26.0,77,0.00,,,0.01,,2013-01-12 19:33:00,
2013-01-12 13:43:00,11.0,5.0,29.99,West,263,17.0,26.0,77,0.00,,,0.01,,2013-01-12 19:43:00,
2013-01-12 13:53:00,11.0,5.0,29.99,West,263,17.0,26.0,77,0.00,,,0.01,,2013-01-12 19:53:00,
2013-01-12 14:02:00,11.0,4.0,30.00,West,281,18.0,29.0,74,0.00,,,0.01,,2013-01-12 20:02:00,
2013-01-12 14:12:00,11.0,4.0,30.00,West,281,18.0,29.0,74,0.00,,,0.01,,2013-01-12 20:12:00,
2013-01-12 14:22:00,10.0,5.0,30.01,West,272,14.0,25.0,78,0.00,,,0.01,,2013-01-12 20:22:00,
2013-01-12 14:33:00,11.0,5.0,30.00,West,280,17.0,29.0,75,0.00,,,0.01,,2013-01-12 20:33:00,
2013-01-12 14:42:00,11.0,5.0,30.00,West,280,17.0,29.0,75,0.00,,,0.01,,2013-01-12 20:42:00,
2013-01-12 14:53:00,11.0,5.0,30.02,WSW,256,17.0,28.0,76,0.00,,,0.01,,2013-01-12 20:53:00,
2013-01-12 15:03:00,11.0,5.0,30.02,WSW,256,17.0,28.0,76,0.00,,,0.01,,2013-01-12 21:03:00,
2013-01-12 15:12:00,11.0,5.0,30.02,WSW,256,17.0,28.0,76,0.00,,,0.01,,2013-01-12 21:12:00,
2013-01-12 15:22:00,11.0,4.0,30.01,WNW,290,19.0,28.0,74,0.00,,,0.01,,2013-01-12 21:22:00,
2013-01-12 15:33:00,11.0,5.0,30.02,WNW,290,19.0,25.0,77,0.00,,,0.01,,2013-01-12 21:33:00,
2013-01-12 15:43:00,11.0,5.0,30.02,WNW,290,19.0,25.0,77,0.00,,,0.01,,2013-01-12 21:43:00,
2013-01-12 15:52:00,10.0,4.0,30.03,WNW,290,20.0,27.0,75,0.00,,,0.01,,2013-01-12 21:52:00,
2013-01-12 16:03:00,10.0,4.0,30.02,WNW,288,21.0,27.0,76,0.00,,,0.01,,2013-01-12 22:03:00,
2013-01-12 16:12:00,10.0,4.0,30.02,WNW,288,21.0,27.0,76,0.00,,,0.01,,2013-01-12 22:12:00,
2013-01-12 16:22:00,10.0,4.0,30.02,WNW,288,21.0,27.0,76,0.00,,,0.01,,2013-01-12 22:22:00,
2013-01-12 16:33:00,9.0,4.0,30.04,West,280,16.0,22.0,79,0.00,,,0.01,,2013-01-12 22:33:00,
2013-01-12 16:43:00,9.0,4.0,30.04,West,280,16.0,22.0,79,0.00,,,0.01,,2013-01-12 22:43:00,
2013-01-12 16:53:00,9.0,3.0,30.04,WNW,284,15.0,21.0,77,0.00,,,0.01,,2013-01-12 22:53:00,
2013-01-12 17:03:00,9.0,3.0,30.04,WNW,284,15.0,21.0,77,0.00,,,0.01,,2013-01-12 23:03:00,
2013-01-12 17:12:00,9.0,3.0,30.04,WNW,284,15.0,21.0,77,0.00,,,0.01,,2013-01-12 23:12:00,
2013-01-12 17:22:00,8.0,1.0,30.07,West,278,16.0,23.0,74,0.00,,,0.01,,2013-01-12 23:22:00,
2013-01-12 17:33:00,8.0,1.0,30.09,West,274,15.0,22.0,74,0.00,,,0.01,,2013-01-12 23:33:00,
2013-01-12 17:43:00,8.0,1.0,30.09,West,274,15.0,22.0,74,0.00,,,0.01,,2013-01-12 23:43:00,
2013-01-12 17:53:00,8.0,1.0,30.09,West,274,15.0,22.0,74,0.00,,,0.01,,2013-01-12 23:53:00,
2013-01-12 18:03:00,8.0,2.0,30.07,WNW,288,13.0,19.0,77,0.00,,,0.01,,2013-01-13 00:03:00,
2013-01-12 18:12:00,8.0,2.0,30.07,WNW,288,13.0,19.0,77,0.00,,,0.01,,2013-01-13 00:12:00,
2013-01-12 18:22:00,7.0,2.0,30.07,West,279,15.0,22.0,78,0.00,,,0.01,,2013-01-13 00:22:00,
2013-01-12 18:33:00,7.0,2.0,30.07,WNW,283,14.0,22.0,78,0.00,,,0.00,,2013-01-13 00:33:00,
2013-01-12 18:43:00,7.0,2.0,30.07,WNW,283,14.0,22.0,78,0.00,,,0.00,,2013-01-13 00:43:00,
2013-01-12 18:52:00,7.0,1.0,30.07,WNW,290,14.0,23.0,77,0.00,,,0.00,,2013-01-13 00:52:00,
2013-01-12 19:03:00,7.0,1.0,30.07,WNW,290,14.0,23.0,77,0.00,,,0.00,,2013-01-13 01:03:00,
2013-01-12 19:12:00,7.0,1.0,30.07,WNW,290,14.0,23.0,77,0.00,,,0.00,,2013-01-13 01:12:00,
2013-01-12 19:22:00,7.0,2.0,30.08,WNW,285,14.0,18.0,78,0.00,,,0.00,,2013-01-13 01:22:00,
2013-01-12 19:32:00,7.0,1.0,30.09,WNW,298,16.0,21.0,77,0.00,,,0.00,,2013-01-13 01:32:00,
2013-01-12 19:43:00,7.0,1.0,30.09,WNW,298,16.0,21.0,77,0.00,,,0.00,,2013-01-13 01:43:00,
2013-01-12 19:52:00,7.0,1.0,30.08,WNW,288,13.0,19.0,77,0.00,,,0.00,,2013-01-13 01:52:00,
2013-01-12 20:02:00,6.0,0.0,30.11,West,281,12.0,18.0,77,0.00,,,0.00,,2013-01-13 02:02:00,
2013-01-12 20:12:00,6.0,0.0,30.11,West,281,12.0,18.0,77,0.00,,,0.00,,2013-01-13 02:12:00,
2013-01-12 20:22:00,6.0,0.0,30.11,West,281,12.0,18.0,77,0.00,,,0.00,,2013-01-13 02:22:00,
2013-01-12 20:32:00,6.0,0.0,30.10,WNW,291,11.0,20.0,77,0.00,,,0.00,,2013-01-13 02:32:00,
2013-01-12 20:42:00,6.0,0.0,30.10,WNW,291,11.0,20.0,77,0.00,,,0.00,,2013-01-13 02:42:00,
2013-01-12 20:53:00,6.0,1.0,30.11,WNW,285,11.0,17.0,78,0.00,,,0.00,,2013-01-13 02:53:00,
2013-01-12 21:02:00,6.0,1.0,30.13,West,280,13.0,17.0,78,0.00,,,0.00,,2013-01-13 03:02:00,
2013-01-12 21:12:00,6.0,1.0,30.13,West,280,13.0,17.0,78,0.00,,,0.00,,2013-01-13 03:12:00,
2013-01-12 21:22:00,6.0,1.0,30.14,WNW,283,10.0,15.0,78,0.00,,,0.00,,2013-01-13 03:22:00,
2013-01-12 21:33:00,6.0,1.0,30.11,WNW,287,11.0,18.0,78,0.00,,,0.00,,2013-01-13 03:33:00,
2013-01-12 21:42:00,6.0,1.0,30.11,WNW,287,11.0,18.0,78,0.00,,,0.00,,2013-01-13 03:42:00,
2013-01-12 21:53:00,6.0,1.0,30.11,WNW,287,11.0,18.0,78,0.00,,,0.00,,2013-01-13 03:53:00,
2013-01-12 22:02:00,6.0,1.0,30.12,WNW,287,11.0,16.0,78,0.00,,,0.00,,2013-01-13 04:02:00,
2013-01-12 22:12:00,6.0,1.0,30.12,WNW,287,11.0,16.0,78,0.00,,,0.00,,2013-01-13 04:12:00,
2013-01-12 22:22:00,5.0,-1.0,30.12,WNW,292,12.0,14.0,77,0.00,,,0.00,,2013-01-13 04:22:00,
2013-01-12 22:33:00,5.0,0.0,30.13,WNW,293,9.0,14.0,79,0.00,,,0.00,,2013-01-13 04:33:00,
2013-01-12 22:42:00,5.0,0.0,30.13,WNW,293,9.0,14.0,79,0.00,,,0.00,,2013-01-13 04:42:00,
2013-01-12 22:52:00,5.0,0.0,30.12,WNW,294,8.0,13.0,80,0.00,,,0.00,,2013-01-13 04:52:00,
2013-01-12 23:03:00,5.0,0.0,30.12,WNW,294,8.0,13.0,80,0.00,,,0.00,,2013-01-13 05:03:00,
2013-01-12 23:12:00,5.0,0.0,30.12,WNW,294,8.0,13.0,80,0.00,,,0.00,,2013-01-13 05:12:00,
2013-01-12 23:22:00,4.0,-1.0,30.13,NW,326,9.0,16.0,79,0.00,,,0.00,,2013-01-13 05:22:00,
2013-01-12 23:32:00,4.0,-1.0,30.12,NW,311,9.0,17.0,78,0.00,,,0.00,,2013-01-13 05:32:00,
2013-01-12 23:42:00,4.0,-1.0,30.12,NW,311,9.0,17.0,78,0.00,,,0.00,,2013-01-13 05:42:00,
2013-01-12 23:52:00,3.0,-2.0,30.14,WNW,290,9.0,16.0,78,0.00,,,0.00,,2013-01-13 05:52:00,